Northern Lark — WDG5157 — position and weather

sailwx.info

Track history (hours):
 
Tides and Currents Weather Stations Pressure Air Temp Water Temp Dewpoint Dewpoint Depression Visibility Wind Speed Wind Dir Waves Ship Positions

Northern Lark

Owner: Biener, Robert, Bainbridge Island, WA. More information available from US FCC via Universal Licensing System.

Last reported at 2018-Jul-08 15:09 UTC. Time now 2018-Jul-17 09:22 UTC.
Position N 47°39' W 122°20'.
Warning: this ship's position is 8 days out of date.

Length 16 m.

Type: Pleasure craft. MMSI: 367543890.

Date/timePositionNaut miles runAvg speedWind from/ knotsBaromVisibWave heightAir tempDewpointWater temp
2018-Jul-08 15:09N 47°39' W 122°20'0 0.0
2018-Jul-08 14:57N 47°39' W 122°20'0 0.0
2018-Jul-08 14:27N 47°39' W 122°20'0 0.0
2018-Jul-08 13:57N 47°39' W 122°20'0 0.0
2018-Jul-08 13:26N 47°39' W 122°20'0 0.0
2018-Jul-08 12:56N 47°39' W 122°20'0 0.0
2018-Jul-08 12:26N 47°39' W 122°20'0 0.0
2018-Jul-08 11:56N 47°39' W 122°20'0 0.0
2018-Jul-08 11:23N 47°39' W 122°20'0 0.0
2018-Jul-08 10:56N 47°39' W 122°20'0 0.0
2018-Jul-08 10:29N 47°39' W 122°20'0 0.0
2018-Jul-08 09:50N 47°39' W 122°20'0 0.0
2018-Jul-08 09:29N 47°39' W 122°20'0 0.0
2018-Jul-08 08:47N 47°39' W 122°20'0 0.0
2018-Jul-08 08:20N 47°39' W 122°20'0 0.0
2018-Jul-08 07:59N 47°39' W 122°20'0 0.0
2018-Jul-08 07:29N 47°39' W 122°20'0 0.0
2018-Jul-08 06:56N 47°39' W 122°20'0 0.0
2018-Jul-08 06:29N 47°39' W 122°20'0 0.0
2018-Jul-08 05:58N 47°39' W 122°20'0 0.0
2018-Jul-08 05:25N 47°39' W 122°20'0 0.0
2018-Jul-08 04:49N 47°39' W 122°20'0 0.0
2018-Jul-08 04:19N 47°39' W 122°20'0 0.0
2018-Jul-08 03:55N 47°39' W 122°20'0 0.0
2018-Jul-08 03:25N 47°39' W 122°20'0 0.0
2018-Jul-08 02:55N 47°39' W 122°20'0 0.0
2018-Jul-08 00:11N 47°39' W 122°20'1 3.4
2018-Jul-08 00:00N 47°39' W 122°19'6 4.7
2018-Jul-07 22:45N 47°33' W 122°15'0 0.0
2018-Jul-07 22:30N 47°33' W 122°15'3 5.3
2018-Jul-07 21:58N 47°36' W 122°13'1 1.4
2018-Jul-07 21:29N 47°36' W 122°14'3 6.5
2018-Jul-07 21:00N 47°39' W 122°17'2 4.4
2018-Jul-07 20:29N 47°38' W 122°20'1 0.0
2018-Jul-06 17:33N 47°39' W 122°20'0 0.1
2018-Jul-06 17:27N 47°39' W 122°20'0 0.0
2018-Jul-06 17:00N 47°39' W 122°20'0 0.0
2018-Jul-06 16:30N 47°39' W 122°20'0 0.0
2018-Jul-06 16:00N 47°39' W 122°20'0 0.0
2018-Jul-06 15:30N 47°39' W 122°20'0 0.0
2018-Jul-06 15:00N 47°39' W 122°20'0 0.0
2018-Jul-06 14:21N 47°39' W 122°20'0 0.0
2018-Jul-06 13:57N 47°39' W 122°20'0 0.0
2018-Jul-06 13:24N 47°39' W 122°20'0 0.0
2018-Jul-06 13:00N 47°39' W 122°20'0 0.0
2018-Jul-06 12:30N 47°39' W 122°20'0 0.0
2018-Jul-06 12:00N 47°39' W 122°20'0 0.0
2018-Jul-06 11:30N 47°39' W 122°20'0 0.0
2018-Jul-06 11:00N 47°39' W 122°20'0 0.0
2018-Jul-06 10:27N 47°39' W 122°20'0 0.0
2018-Jul-06 09:51N 47°39' W 122°20'0 0.0
2018-Jul-06 09:30N 47°39' W 122°20'0 0.0
2018-Jul-06 08:57N 47°39' W 122°20'0 0.0
2018-Jul-06 08:30N 47°39' W 122°20'0 0.0
2018-Jul-06 08:00N 47°39' W 122°20'0 0.0
2018-Jul-06 07:30N 47°39' W 122°20'0 0.0
2018-Jul-06 07:00N 47°39' W 122°20'0 0.0
2018-Jul-06 06:30N 47°39' W 122°20'0 0.0
2018-Jul-06 06:00N 47°39' W 122°20'0 0.0
2018-Jul-06 05:27N 47°39' W 122°20'0 0.0
2018-Jul-06 05:00N 47°39' W 122°20'0 0.0
2018-Jul-06 04:30N 47°39' W 122°20'0 0.0
2018-Jul-06 04:00N 47°39' W 122°20'0 0.0
2018-Jul-06 03:30N 47°39' W 122°20'0 0.0
2018-Jul-06 02:48N 47°39' W 122°20'0 0.0
2018-Jul-06 02:30N 47°39' W 122°20'0 0.0
2018-Jul-06 02:00N 47°39' W 122°20'0 0.0
2018-Jul-06 01:30N 47°39' W 122°20'0 0.0
2018-Jul-06 01:00N 47°39' W 122°20'0 0.0
2018-Jul-06 00:30N 47°39' W 122°20'0 0.0
2018-Jul-06 00:00N 47°39' W 122°20'0 0.0
2018-Jul-05 23:30N 47°39' W 122°20'0 0.0
2018-Jul-05 22:57N 47°39' W 122°20'0 0.0
2018-Jul-05 22:26N 47°39' W 122°20'0 0.0
2018-Jul-05 21:59N 47°39' W 122°20'0 0.0
2018-Jul-05 21:26N 47°39' W 122°20'0 0.0
2018-Jul-05 20:59N 47°39' W 122°20'0 0.0
2018-Jul-05 20:24N 47°39' W 122°20'0 0.0
2018-Jul-05 20:00N 47°39' W 122°20'0 0.0
2018-Jul-05 19:30N 47°39' W 122°20'0 0.0
2018-Jul-05 18:59N 47°39' W 122°20'0 0.0
2018-Jul-05 18:26N 47°39' W 122°20'0 0.0
2018-Jul-05 17:56N 47°39' W 122°20'0 0.0
2018-Jul-05 17:29N 47°39' W 122°20'0 0.0
2018-Jul-05 16:59N 47°39' W 122°20'0 0.0
2018-Jul-05 16:29N 47°39' W 122°20'0 0.0
2018-Jul-05 15:59N 47°39' W 122°20'0 0.0
2018-Jul-05 15:29N 47°39' W 122°20'0 0.0
2018-Jul-05 14:59N 47°39' W 122°20'0 0.0
2018-Jul-05 13:59N 47°39' W 122°20'0 0.0
2018-Jul-05 13:29N 47°39' W 122°20'0 0.0
2018-Jul-05 12:59N 47°39' W 122°20'0 0.0
2018-Jul-05 12:29N 47°39' W 122°20'0 0.0
2018-Jul-05 11:59N 47°39' W 122°20'0 0.0
2018-Jul-05 11:29N 47°39' W 122°20'0 0.0
2018-Jul-05 10:59N 47°39' W 122°20'0 0.0
2018-Jul-05 10:29N 47°39' W 122°20'0 0.0
2018-Jul-05 09:56N 47°39' W 122°20'0 0.0
2018-Jul-05 09:25N 47°39' W 122°20'0 0.0
2018-Jul-05 08:58N 47°39' W 122°20'0 0.0
2018-Jul-05 08:28N 47°39' W 122°20'0 0.0
2018-Jul-05 07:58N 47°39' W 122°20'0 0.0
2018-Jul-05 07:28N 47°39' W 122°20'0 0.0
2018-Jul-05 06:58N 47°39' W 122°20'0 0.0
2018-Jul-05 06:28N 47°39' W 122°20'0 0.0
2018-Jul-05 05:58N 47°39' W 122°20'0 0.0
2018-Jul-05 05:28N 47°39' W 122°20'0 0.0
2018-Jul-05 04:58N 47°39' W 122°20'0 0.0
2018-Jul-05 04:28N 47°39' W 122°20'0 0.0
2018-Jul-05 03:58N 47°39' W 122°20'0 0.0
2018-Jul-05 03:28N 47°39' W 122°20'0 0.0
2018-Jul-05 02:58N 47°39' W 122°20'0 0.0
2018-Jul-05 02:25N 47°39' W 122°20'0 0.0
2018-Jul-05 01:58N 47°39' W 122°20'0 0.0
2018-Jul-05 01:30N 47°39' W 122°20'0 0.0
2018-Jul-05 00:54N 47°39' W 122°20'0 0.0
2018-Jul-05 00:30N 47°39' W 122°20'0 0.0
2018-Jul-05 00:00N 47°39' W 122°20'0 0.0
2018-Jul-04 23:27N 47°39' W 122°20'0 0.3
2018-Jul-04 23:00N 47°39' W 122°20'3 5.2
2018-Jul-04 22:28N 47°37' W 122°17'3 7.4
2018-Jul-04 22:00N 47°34' W 122°16'0 0.1
2018-Jul-04 20:10N 47°34' W 122°16'3 7.8
2018-Jul-04 19:44N 47°37' W 122°17'2 7.1
2018-Jul-04 19:30N 47°39' W 122°17'2 1.8
2018-Jul-04 18:24N 47°39' W 122°20'0 0.0
2018-Jul-04 18:00N 47°39' W 122°20'0 0.0
2018-Jul-04 17:30N 47°39' W 122°20'0 0.0
2018-Jul-03 15:41N 47°39' W 122°20'0 0.0
2018-Jul-03 15:29N 47°39' W 122°20'0 0.0
2018-Jul-03 14:47N 47°39' W 122°20'0 0.0
2018-Jul-03 14:29N 47°39' W 122°20'0 0.0
2018-Jul-03 13:59N 47°39' W 122°20'0 0.0
2018-Jul-03 13:29N 47°39' W 122°20'0 0.0
2018-Jul-03 12:59N 47°39' W 122°20'0 0.0
2018-Jul-03 12:26N 47°39' W 122°20'0 0.0
2018-Jul-03 11:59N 47°39' W 122°20'0 0.0
2018-Jul-03 11:29N 47°39' W 122°20'0 0.0
2018-Jul-03 10:59N 47°39' W 122°20'0 0.0
2018-Jul-03 10:29N 47°39' W 122°20'0 0.0
2018-Jul-03 09:59N 47°39' W 122°20'0 0.0
2018-Jul-03 09:29N 47°39' W 122°20'0 0.0
2018-Jul-03 08:59N 47°39' W 122°20'0 0.0
2018-Jul-03 08:29N 47°39' W 122°20'0 0.0
2018-Jul-03 07:59N 47°39' W 122°20'0 0.0
2018-Jul-03 07:29N 47°39' W 122°20'0 0.0
2018-Jul-03 06:59N 47°39' W 122°20'0 0.0
2018-Jul-03 06:29N 47°39' W 122°20'0 0.0
2018-Jul-03 05:59N 47°39' W 122°20'0 0.0
2018-Jul-03 00:02N 47°39' W 122°20'0 0.0
2018-Jul-02 23:44N 47°39' W 122°20'0 0.4
2018-Jul-02 23:29N 47°39' W 122°20'1 1.6
2018-Jul-02 23:00N 47°39' W 122°21'0 0.0
2018-Jul-02 22:30N 47°39' W 122°21'0 0.0
2018-Jul-02 22:00N 47°39' W 122°21'0 0.0
2018-Jul-02 21:30N 47°39' W 122°21'0 0.0
2018-Jul-02 21:00N 47°39' W 122°21'0 0.0
2018-Jul-02 20:27N 47°39' W 122°21'0 0.5
2018-Jul-02 20:00N 47°39' W 122°20'1 1.3
2018-Jul-02 19:28N 47°39' W 122°20'0 0.0
2018-Jul-02 18:55N 47°39' W 122°20'0 0.0
2018-Jul-02 18:28N 47°39' W 122°20'0 0.0
2018-Jul-02 17:58N 47°39' W 122°20'0 0.0
2018-Jul-02 17:28N 47°39' W 122°20'0 0.0
2018-Jul-02 16:58N 47°39' W 122°20'0 0.0
2018-Jul-02 16:28N 47°39' W 122°20'0 0.0
2018-Jul-02 15:58N 47°39' W 122°20'0 0.0
2018-Jul-02 15:28N 47°39' W 122°20'0 0.0
2018-Jul-02 14:58N 47°39' W 122°20'0 0.0
2018-Jul-02 14:22N 47°39' W 122°20'0 0.0
2018-Jul-02 13:58N 47°39' W 122°20'0 0.0
2018-Jul-02 13:28N 47°39' W 122°20'0 0.0
2018-Jul-02 12:58N 47°39' W 122°20'0 0.0
2018-Jul-02 12:31N 47°39' W 122°20'0 0.0
2018-Jul-02 11:49N 47°39' W 122°20'0 0.0
2018-Jul-02 11:31N 47°39' W 122°20'0 0.0
2018-Jul-02 10:58N 47°39' W 122°20'0 0.0
2018-Jul-02 10:25N 47°39' W 122°20'0 0.0
2018-Jul-02 09:55N 47°39' W 122°20'0 0.0
2018-Jul-02 09:31N 47°39' W 122°20'0 0.0
2018-Jul-02 08:52N 47°39' W 122°20'0 0.0
2018-Jul-02 08:31N 47°39' W 122°20'0 0.0
2018-Jul-02 07:58N 47°39' W 122°20'0 0.0
2018-Jul-02 07:28N 47°39' W 122°20'0 0.0
2018-Jul-02 06:55N 47°39' W 122°20'0 0.0
2018-Jul-02 06:25N 47°39' W 122°20'0 0.0
2018-Jul-02 05:58N 47°39' W 122°20'0 0.0
2018-Jul-02 05:31N 47°39' W 122°20'0 0.0
2018-Jul-02 05:01N 47°39' W 122°20'0 0.0
2018-Jul-02 04:28N 47°39' W 122°20'0 0.0
2018-Jul-02 03:58N 47°39' W 122°20'0 0.0
2018-Jul-02 03:28N 47°39' W 122°20'0 0.0
2018-Jul-02 02:58N 47°39' W 122°20'0 0.0
2018-Jul-02 02:31N 47°39' W 122°20'0 0.0
2018-Jul-02 01:58N 47°39' W 122°20'0 0.0
2018-Jul-02 01:28N 47°39' W 122°20'0 0.0
2018-Jul-02 00:55N 47°39' W 122°20'0 0.0
2018-Jul-02 00:31N 47°39' W 122°20'0 0.0
2018-Jul-01 23:58N 47°39' W 122°20'0 0.0
2018-Jul-01 23:28N 47°39' W 122°20'0 0.0
2018-Jul-01 22:58N 47°39' W 122°20'0 0.0
2018-Jul-01 22:25N 47°39' W 122°20'0 0.0
2018-Jul-01 21:55N 47°39' W 122°20'0 0.0
2018-Jul-01 21:30N 47°39' W 122°20'0 0.0
2018-Jul-01 20:58N 47°39' W 122°20'0 0.0
2018-Jul-01 20:31N 47°39' W 122°20'0 0.0
2018-Jul-01 20:01N 47°39' W 122°20'0 0.0
2018-Jul-01 19:22N 47°39' W 122°20'0 0.0
2018-Jul-01 18:58N 47°39' W 122°20'0 0.0
2018-Jul-01 18:19N 47°39' W 122°20'0 0.0
2018-Jul-01 17:58N 47°39' W 122°20'0 0.0
2018-Jul-01 17:30N 47°39' W 122°20'0 0.0
2018-Jul-01 17:00N 47°39' W 122°20'0 0.0
2018-Jul-01 16:30N 47°39' W 122°20'0 0.0
2018-Jul-01 16:01N 47°39' W 122°20'0 0.0
2018-Jul-01 15:28N 47°39' W 122°20'0 0.0
2018-Jul-01 15:00N 47°39' W 122°20'0 0.0
2018-Jul-01 14:30N 47°39' W 122°20'0 0.0
2018-Jul-01 14:01N 47°39' W 122°20'0 0.0
2018-Jul-01 13:31N 47°39' W 122°20'0 0.0
2018-Jul-01 12:57N 47°39' W 122°20'0 0.0
2018-Jul-01 12:31N 47°39' W 122°20'0 0.0
2018-Jul-01 12:00N 47°39' W 122°20'0 0.0
2018-Jul-01 11:24N 47°39' W 122°20'0 0.0
2018-Jul-01 11:00N 47°39' W 122°20'0 0.0
2018-Jul-01 10:30N 47°39' W 122°20'0 0.0
2018-Jul-01 09:57N 47°39' W 122°20'0 0.0
2018-Jul-01 09:31N 47°39' W 122°20'0 0.0
2018-Jul-01 09:00N 47°39' W 122°20'0 0.0
2018-Jul-01 08:30N 47°39' W 122°20'0 0.0
2018-Jul-01 08:00N 47°39' W 122°20'0 0.0
2018-Jul-01 07:30N 47°39' W 122°20'0 0.0
2018-Jul-01 07:00N 47°39' W 122°20'0 0.0
2018-Jul-01 06:30N 47°39' W 122°20'0 0.0
2018-Jul-01 06:00N 47°39' W 122°20'0 0.0
2018-Jul-01 05:30N 47°39' W 122°20'0 0.0
2018-Jul-01 04:58N 47°39' W 122°20'0 0.0
2018-Jul-01 04:31N 47°39' W 122°20'0 0.0
2018-Jul-01 04:00N 47°39' W 122°20'0 0.0
2018-Jul-01 03:30N 47°39' W 122°20'0 0.0
2018-Jul-01 02:57N 47°39' W 122°20'0 0.0
2018-Jul-01 02:30N 47°39' W 122°20'0 0.0
2018-Jul-01 02:00N 47°39' W 122°20'0 0.0
2018-Jul-01 01:30N 47°39' W 122°20'0 0.0
2018-Jul-01 01:00N 47°39' W 122°20'0 0.0
2018-Jul-01 00:30N 47°39' W 122°20'0 0.0
2018-Jul-01 00:00N 47°39' W 122°20'0 0.0
2018-Jun-30 23:30N 47°39' W 122°20'0 0.0
2018-Jun-30 23:00N 47°39' W 122°20'0 0.0
2018-Jun-30 22:30N 47°39' W 122°20'0 0.0
2018-Jun-30 21:57N 47°39' W 122°20'0 0.0
2018-Jun-30 21:27N 47°39' W 122°20'0 0.0
2018-Jun-30 20:54N 47°39' W 122°20'0 0.0
2018-Jun-30 20:30N 47°39' W 122°20'0 0.0
2018-Jun-30 19:54N 47°39' W 122°20'0 0.0
2018-Jun-30 19:30N 47°39' W 122°20'0 0.0
2018-Jun-30 19:00N 47°39' W 122°20'0 0.0
2018-Jun-30 18:30N 47°39' W 122°20'0 0.0
2018-Jun-30 18:00N 47°39' W 122°20'0 0.0
2018-Jun-30 17:30N 47°39' W 122°20'0 0.0
2018-Jun-30 17:00N 47°39' W 122°20'0 0.0
2018-Jun-30 16:30N 47°39' W 122°20'0 0.0
2018-Jun-30 16:00N 47°39' W 122°20'0 0.0
2018-Jun-30 15:30N 47°39' W 122°20'0 0.0
2018-Jun-30 15:00N 47°39' W 122°20'0 0.0
2018-Jun-30 14:30N 47°39' W 122°20'0 0.0
2018-Jun-30 13:57N 47°39' W 122°20'0 0.0
2018-Jun-30 13:30N 47°39' W 122°20'0 0.0
2018-Jun-30 13:00N 47°39' W 122°20'0 0.0
2018-Jun-30 12:30N 47°39' W 122°20'0 0.0
2018-Jun-30 12:00N 47°39' W 122°20'0 0.0
2018-Jun-30 11:30N 47°39' W 122°20'0 0.0
2018-Jun-30 11:00N 47°39' W 122°20'0 0.0
2018-Jun-30 10:30N 47°39' W 122°20'0 0.0
2018-Jun-30 10:00N 47°39' W 122°20'0 0.0
2018-Jun-30 09:27N 47°39' W 122°20'0 0.0
2018-Jun-30 09:00N 47°39' W 122°20'0 0.0
2018-Jun-30 08:21N 47°39' W 122°20'0 0.0
2018-Jun-30 07:57N 47°39' W 122°20'0 0.0
2018-Jun-30 07:30N 47°39' W 122°20'0 0.0
2018-Jun-30 07:00N 47°39' W 122°20'0 0.0
2018-Jun-30 06:30N 47°39' W 122°20'0 0.0
2018-Jun-30 06:00N 47°39' W 122°20'0 0.0
2018-Jun-30 05:30N 47°39' W 122°20'0 0.0
2018-Jun-30 05:00N 47°39' W 122°20'0 0.0
2018-Jun-30 04:30N 47°39' W 122°20'0 0.0
2018-Jun-30 04:00N 47°39' W 122°20'0 0.0
2018-Jun-30 03:30N 47°39' W 122°20'0 0.0
2018-Jun-30 03:00N 47°39' W 122°20'0 0.0
2018-Jun-30 02:30N 47°39' W 122°20'0 0.0
2018-Jun-30 02:00N 47°39' W 122°20'0 0.0
2018-Jun-30 01:21N 47°39' W 122°20'0 0.0
2018-Jun-30 01:00N 47°39' W 122°20'0 0.0
2018-Jun-30 00:27N 47°39' W 122°20'0 0.0
2018-Jun-30 00:00N 47°39' W 122°20'0 0.0
2018-Jun-29 23:30N 47°39' W 122°20'0 0.0
2018-Jun-29 22:48N 47°39' W 122°20'0 0.0
2018-Jun-29 22:27N 47°39' W 122°20'0 0.0
2018-Jun-29 22:00N 47°39' W 122°20'0 0.0
2018-Jun-29 21:30N 47°39' W 122°20'0 0.0
2018-Jun-29 21:00N 47°39' W 122°20'0 0.0
2018-Jun-29 20:24N 47°39' W 122°20'0 0.0
2018-Jun-29 20:00N 47°39' W 122°20'0 0.0
2018-Jun-29 19:30N 47°39' W 122°20'0 0.0
2018-Jun-29 18:54N 47°39' W 122°20'0 0.0
2018-Jun-29 18:30N 47°39' W 122°20'0 0.0
2018-Jun-29 18:00N 47°39' W 122°20'0 0.0
2018-Jun-29 17:30N 47°39' W 122°20'0 0.0
2018-Jun-29 17:00N 47°39' W 122°20'0 0.0
2018-Jun-29 16:30N 47°39' W 122°20'0 0.0
2018-Jun-29 16:00N 47°39' W 122°20'0 0.0
2018-Jun-29 15:30N 47°39' W 122°20'0 0.0
2018-Jun-29 15:00N 47°39' W 122°20'0 0.0
2018-Jun-29 14:30N 47°39' W 122°20'0 0.0
2018-Jun-29 14:00N 47°39' W 122°20'0 0.0
2018-Jun-29 13:30N 47°39' W 122°20'0 0.0
2018-Jun-29 13:00N 47°39' W 122°20'0 0.0
2018-Jun-29 12:30N 47°39' W 122°20'0 0.0
2018-Jun-29 12:00N 47°39' W 122°20'0 0.0
2018-Jun-29 11:24N 47°39' W 122°20'0 0.0
2018-Jun-29 11:00N 47°39' W 122°20'0 0.0
2018-Jun-29 10:27N 47°39' W 122°20'0 0.0
2018-Jun-29 10:00N 47°39' W 122°20'0 0.0
2018-Jun-29 09:30N 47°39' W 122°20'0 0.0
2018-Jun-29 08:57N 47°39' W 122°20'0 0.0
2018-Jun-29 08:30N 47°39' W 122°20'0 0.0
2018-Jun-29 08:00N 47°39' W 122°20'0 0.0
2018-Jun-29 07:30N 47°39' W 122°20'0 0.0
2018-Jun-29 07:00N 47°39' W 122°20'0 0.0
2018-Jun-29 06:30N 47°39' W 122°20'0 0.0
2018-Jun-29 05:57N 47°39' W 122°20'0 0.0
2018-Jun-29 05:30N 47°39' W 122°20'0 0.0
2018-Jun-29 05:00N 47°39' W 122°20'0 0.0
2018-Jun-29 04:30N 47°39' W 122°20'0 0.0
2018-Jun-29 04:00N 47°39' W 122°20'0 0.0
2018-Jun-29 03:30N 47°39' W 122°20'0 0.0
2018-Jun-29 03:00N 47°39' W 122°20'0 0.0
2018-Jun-29 02:27N 47°39' W 122°20'0 0.0
2018-Jun-29 02:00N 47°39' W 122°20'0 0.0
2018-Jun-29 00:44N 47°39' W 122°20'0 0.0
2018-Jun-29 00:17N 47°39' W 122°20'0 0.0
2018-Jun-28 23:59N 47°39' W 122°20'0 0.0
2018-Jun-28 23:29N 47°39' W 122°20'0 0.0
2018-Jun-28 22:53N 47°39' W 122°20'0 0.0
2018-Jun-28 22:29N 47°39' W 122°20'0 0.0
2018-Jun-28 21:59N 47°39' W 122°20'0 0.0
2018-Jun-28 21:29N 47°39' W 122°20'0 0.0
2018-Jun-28 20:59N 47°39' W 122°20'0 0.0
2018-Jun-28 20:29N 47°39' W 122°20'0 0.0
2018-Jun-28 19:56N 47°39' W 122°20'0 0.0
2018-Jun-28 19:20N 47°39' W 122°20'0 0.0
2018-Jun-28 18:56N 47°39' W 122°20'0 0.0
2018-Jun-28 18:29N 47°39' W 122°20'0 0.0
2018-Jun-28 17:56N 47°39' W 122°20'0 0.0
2018-Jun-28 17:26N 47°39' W 122°20'0 0.0
2018-Jun-28 16:59N 47°39' W 122°20'0 0.0
2018-Jun-28 16:29N 47°39' W 122°20'0 0.0
2018-Jun-28 15:56N 47°39' W 122°20'0 0.0
2018-Jun-28 15:29N 47°39' W 122°20'  
Track history (hours):
 
Tides and Currents Weather Stations Pressure Air Temp Water Temp Dewpoint Dewpoint Depression Visibility Wind Speed Wind Dir Waves Ship Positions

Northern Lark

Owner: Biener, Robert, Bainbridge Island, WA. More information available from US FCC via Universal Licensing System.

Last reported at 2018-Jul-08 15:09 UTC. Time now 2018-Jul-17 09:22 UTC.
Position N 47°39' W 122°20'.
Warning: this ship's position is 8 days out of date.

Length 16 m.

Type: Pleasure craft. MMSI: 367543890.

Date/timePositionNaut miles runAvg speedWind from/ knotsBaromVisibWave heightAir tempDewpointWater temp
2018-Jul-08 15:09N 47°39' W 122°20'0 0.0
2018-Jul-08 14:57N 47°39' W 122°20'0 0.0
2018-Jul-08 14:27N 47°39' W 122°20'0 0.0
2018-Jul-08 13:57N 47°39' W 122°20'0 0.0
2018-Jul-08 13:26N 47°39' W 122°20'0 0.0
2018-Jul-08 12:56N 47°39' W 122°20'0 0.0
2018-Jul-08 12:26N 47°39' W 122°20'0 0.0
2018-Jul-08 11:56N 47°39' W 122°20'0 0.0
2018-Jul-08 11:23N 47°39' W 122°20'0 0.0
2018-Jul-08 10:56N 47°39' W 122°20'0 0.0
2018-Jul-08 10:29N 47°39' W 122°20'0 0.0
2018-Jul-08 09:50N 47°39' W 122°20'0 0.0
2018-Jul-08 09:29N 47°39' W 122°20'0 0.0
2018-Jul-08 08:47N 47°39' W 122°20'0 0.0
2018-Jul-08 08:20N 47°39' W 122°20'0 0.0
2018-Jul-08 07:59N 47°39' W 122°20'0 0.0
2018-Jul-08 07:29N 47°39' W 122°20'0 0.0
2018-Jul-08 06:56N 47°39' W 122°20'0 0.0
2018-Jul-08 06:29N 47°39' W 122°20'0 0.0
2018-Jul-08 05:58N 47°39' W 122°20'0 0.0
2018-Jul-08 05:25N 47°39' W 122°20'0 0.0
2018-Jul-08 04:49N 47°39' W 122°20'0 0.0
2018-Jul-08 04:19N 47°39' W 122°20'0 0.0
2018-Jul-08 03:55N 47°39' W 122°20'0 0.0
2018-Jul-08 03:25N 47°39' W 122°20'0 0.0
2018-Jul-08 02:55N 47°39' W 122°20'0 0.0
2018-Jul-08 00:11N 47°39' W 122°20'1 3.4
2018-Jul-08 00:00N 47°39' W 122°19'6 4.7
2018-Jul-07 22:45N 47°33' W 122°15'0 0.0
2018-Jul-07 22:30N 47°33' W 122°15'3 5.3
2018-Jul-07 21:58N 47°36' W 122°13'1 1.4
2018-Jul-07 21:29N 47°36' W 122°14'3 6.5
2018-Jul-07 21:00N 47°39' W 122°17'2 4.4
2018-Jul-07 20:29N 47°38' W 122°20'1 0.0
2018-Jul-06 17:33N 47°39' W 122°20'0 0.1
2018-Jul-06 17:27N 47°39' W 122°20'0 0.0
2018-Jul-06 17:00N 47°39' W 122°20'0 0.0
2018-Jul-06 16:30N 47°39' W 122°20'0 0.0
2018-Jul-06 16:00N 47°39' W 122°20'0 0.0
2018-Jul-06 15:30N 47°39' W 122°20'0 0.0
2018-Jul-06 15:00N 47°39' W 122°20'0 0.0
2018-Jul-06 14:21N 47°39' W 122°20'0 0.0
2018-Jul-06 13:57N 47°39' W 122°20'0 0.0
2018-Jul-06 13:24N 47°39' W 122°20'0 0.0
2018-Jul-06 13:00N 47°39' W 122°20'0 0.0
2018-Jul-06 12:30N 47°39' W 122°20'0 0.0
2018-Jul-06 12:00N 47°39' W 122°20'0 0.0
2018-Jul-06 11:30N 47°39' W 122°20'0 0.0
2018-Jul-06 11:00N 47°39' W 122°20'0 0.0
2018-Jul-06 10:27N 47°39' W 122°20'0 0.0
2018-Jul-06 09:51N 47°39' W 122°20'0 0.0
2018-Jul-06 09:30N 47°39' W 122°20'0 0.0
2018-Jul-06 08:57N 47°39' W 122°20'0 0.0
2018-Jul-06 08:30N 47°39' W 122°20'0 0.0
2018-Jul-06 08:00N 47°39' W 122°20'0 0.0
2018-Jul-06 07:30N 47°39' W 122°20'0 0.0
2018-Jul-06 07:00N 47°39' W 122°20'0 0.0
2018-Jul-06 06:30N 47°39' W 122°20'0 0.0
2018-Jul-06 06:00N 47°39' W 122°20'0 0.0
2018-Jul-06 05:27N 47°39' W 122°20'0 0.0
2018-Jul-06 05:00N 47°39' W 122°20'0 0.0
2018-Jul-06 04:30N 47°39' W 122°20'0 0.0
2018-Jul-06 04:00N 47°39' W 122°20'0 0.0
2018-Jul-06 03:30N 47°39' W 122°20'0 0.0
2018-Jul-06 02:48N 47°39' W 122°20'0 0.0
2018-Jul-06 02:30N 47°39' W 122°20'0 0.0
2018-Jul-06 02:00N 47°39' W 122°20'0 0.0
2018-Jul-06 01:30N 47°39' W 122°20'0 0.0
2018-Jul-06 01:00N 47°39' W 122°20'0 0.0
2018-Jul-06 00:30N 47°39' W 122°20'0 0.0
2018-Jul-06 00:00N 47°39' W 122°20'0 0.0
2018-Jul-05 23:30N 47°39' W 122°20'0 0.0
2018-Jul-05 22:57N 47°39' W 122°20'0 0.0
2018-Jul-05 22:26N 47°39' W 122°20'0 0.0
2018-Jul-05 21:59N 47°39' W 122°20'0 0.0
2018-Jul-05 21:26N 47°39' W 122°20'0 0.0
2018-Jul-05 20:59N 47°39' W 122°20'0 0.0
2018-Jul-05 20:24N 47°39' W 122°20'0 0.0
2018-Jul-05 20:00N 47°39' W 122°20'0 0.0
2018-Jul-05 19:30N 47°39' W 122°20'0 0.0
2018-Jul-05 18:59N 47°39' W 122°20'0 0.0
2018-Jul-05 18:26N 47°39' W 122°20'0 0.0
2018-Jul-05 17:56N 47°39' W 122°20'0 0.0
2018-Jul-05 17:29N 47°39' W 122°20'0 0.0
2018-Jul-05 16:59N 47°39' W 122°20'0 0.0
2018-Jul-05 16:29N 47°39' W 122°20'0 0.0
2018-Jul-05 15:59N 47°39' W 122°20'0 0.0
2018-Jul-05 15:29N 47°39' W 122°20'0 0.0
2018-Jul-05 14:59N 47°39' W 122°20'0 0.0
2018-Jul-05 13:59N 47°39' W 122°20'0 0.0
2018-Jul-05 13:29N 47°39' W 122°20'0 0.0
2018-Jul-05 12:59N 47°39' W 122°20'0 0.0
2018-Jul-05 12:29N 47°39' W 122°20'0 0.0
2018-Jul-05 11:59N 47°39' W 122°20'0 0.0
2018-Jul-05 11:29N 47°39' W 122°20'0 0.0
2018-Jul-05 10:59N 47°39' W 122°20'0 0.0
2018-Jul-05 10:29N 47°39' W 122°20'0 0.0
2018-Jul-05 09:56N 47°39' W 122°20'0 0.0
2018-Jul-05 09:25N 47°39' W 122°20'0 0.0
2018-Jul-05 08:58N 47°39' W 122°20'0 0.0
2018-Jul-05 08:28N 47°39' W 122°20'0 0.0
2018-Jul-05 07:58N 47°39' W 122°20'0 0.0
2018-Jul-05 07:28N 47°39' W 122°20'0 0.0
2018-Jul-05 06:58N 47°39' W 122°20'0 0.0
2018-Jul-05 06:28N 47°39' W 122°20'0 0.0
2018-Jul-05 05:58N 47°39' W 122°20'0 0.0
2018-Jul-05 05:28N 47°39' W 122°20'0 0.0
2018-Jul-05 04:58N 47°39' W 122°20'0 0.0
2018-Jul-05 04:28N 47°39' W 122°20'0 0.0
2018-Jul-05 03:58N 47°39' W 122°20'0 0.0
2018-Jul-05 03:28N 47°39' W 122°20'0 0.0
2018-Jul-05 02:58N 47°39' W 122°20'0 0.0
2018-Jul-05 02:25N 47°39' W 122°20'0 0.0
2018-Jul-05 01:58N 47°39' W 122°20'0 0.0
2018-Jul-05 01:30N 47°39' W 122°20'0 0.0
2018-Jul-05 00:54N 47°39' W 122°20'0 0.0
2018-Jul-05 00:30N 47°39' W 122°20'0 0.0
2018-Jul-05 00:00N 47°39' W 122°20'0 0.0
2018-Jul-04 23:27N 47°39' W 122°20'0 0.3
2018-Jul-04 23:00N 47°39' W 122°20'3 5.2
2018-Jul-04 22:28N 47°37' W 122°17'3 7.4
2018-Jul-04 22:00N 47°34' W 122°16'0 0.1
2018-Jul-04 20:10N 47°34' W 122°16'3 7.8
2018-Jul-04 19:44N 47°37' W 122°17'2 7.1
2018-Jul-04 19:30N 47°39' W 122°17'2 1.8
2018-Jul-04 18:24N 47°39' W 122°20'0 0.0
2018-Jul-04 18:00N 47°39' W 122°20'0 0.0
2018-Jul-04 17:30N 47°39' W 122°20'0 0.0
2018-Jul-03 15:41N 47°39' W 122°20'0 0.0
2018-Jul-03 15:29N 47°39' W 122°20'0 0.0
2018-Jul-03 14:47N 47°39' W 122°20'0 0.0
2018-Jul-03 14:29N 47°39' W 122°20'0 0.0
2018-Jul-03 13:59N 47°39' W 122°20'0 0.0
2018-Jul-03 13:29N 47°39' W 122°20'0 0.0
2018-Jul-03 12:59N 47°39' W 122°20'0 0.0
2018-Jul-03 12:26N 47°39' W 122°20'0 0.0
2018-Jul-03 11:59N 47°39' W 122°20'0 0.0
2018-Jul-03 11:29N 47°39' W 122°20'0 0.0
2018-Jul-03 10:59N 47°39' W 122°20'0 0.0
2018-Jul-03 10:29N 47°39' W 122°20'0 0.0
2018-Jul-03 09:59N 47°39' W 122°20'0 0.0
2018-Jul-03 09:29N 47°39' W 122°20'0 0.0
2018-Jul-03 08:59N 47°39' W 122°20'0 0.0
2018-Jul-03 08:29N 47°39' W 122°20'0 0.0
2018-Jul-03 07:59N 47°39' W 122°20'0 0.0
2018-Jul-03 07:29N 47°39' W 122°20'0 0.0
2018-Jul-03 06:59N 47°39' W 122°20'0 0.0
2018-Jul-03 06:29N 47°39' W 122°20'0 0.0
2018-Jul-03 05:59N 47°39' W 122°20'0 0.0
2018-Jul-03 00:02N 47°39' W 122°20'0 0.0
2018-Jul-02 23:44N 47°39' W 122°20'0 0.4
2018-Jul-02 23:29N 47°39' W 122°20'1 1.6
2018-Jul-02 23:00N 47°39' W 122°21'0 0.0
2018-Jul-02 22:30N 47°39' W 122°21'0 0.0
2018-Jul-02 22:00N 47°39' W 122°21'0 0.0
2018-Jul-02 21:30N 47°39' W 122°21'0 0.0
2018-Jul-02 21:00N 47°39' W 122°21'0 0.0
2018-Jul-02 20:27N 47°39' W 122°21'0 0.5
2018-Jul-02 20:00N 47°39' W 122°20'1 1.3
2018-Jul-02 19:28N 47°39' W 122°20'0 0.0
2018-Jul-02 18:55N 47°39' W 122°20'0 0.0
2018-Jul-02 18:28N 47°39' W 122°20'0 0.0
2018-Jul-02 17:58N 47°39' W 122°20'0 0.0
2018-Jul-02 17:28N 47°39' W 122°20'0 0.0
2018-Jul-02 16:58N 47°39' W 122°20'0 0.0
2018-Jul-02 16:28N 47°39' W 122°20'0 0.0
2018-Jul-02 15:58N 47°39' W 122°20'0 0.0
2018-Jul-02 15:28N 47°39' W 122°20'0 0.0
2018-Jul-02 14:58N 47°39' W 122°20'0 0.0
2018-Jul-02 14:22N 47°39' W 122°20'0 0.0
2018-Jul-02 13:58N 47°39' W 122°20'0 0.0
2018-Jul-02 13:28N 47°39' W 122°20'0 0.0
2018-Jul-02 12:58N 47°39' W 122°20'0 0.0
2018-Jul-02 12:31N 47°39' W 122°20'0 0.0
2018-Jul-02 11:49N 47°39' W 122°20'0 0.0
2018-Jul-02 11:31N 47°39' W 122°20'0 0.0
2018-Jul-02 10:58N 47°39' W 122°20'0 0.0
2018-Jul-02 10:25N 47°39' W 122°20'0 0.0
2018-Jul-02 09:55N 47°39' W 122°20'0 0.0
2018-Jul-02 09:31N 47°39' W 122°20'0 0.0
2018-Jul-02 08:52N 47°39' W 122°20'0 0.0
2018-Jul-02 08:31N 47°39' W 122°20'0 0.0
2018-Jul-02 07:58N 47°39' W 122°20'0 0.0
2018-Jul-02 07:28N 47°39' W 122°20'0 0.0
2018-Jul-02 06:55N 47°39' W 122°20'0 0.0
2018-Jul-02 06:25N 47°39' W 122°20'0 0.0
2018-Jul-02 05:58N 47°39' W 122°20'0 0.0
2018-Jul-02 05:31N 47°39' W 122°20'0 0.0
2018-Jul-02 05:01N 47°39' W 122°20'0 0.0
2018-Jul-02 04:28N 47°39' W 122°20'0 0.0
2018-Jul-02 03:58N 47°39' W 122°20'0 0.0
2018-Jul-02 03:28N 47°39' W 122°20'0 0.0
2018-Jul-02 02:58N 47°39' W 122°20'0 0.0
2018-Jul-02 02:31N 47°39' W 122°20'0 0.0
2018-Jul-02 01:58N 47°39' W 122°20'0 0.0
2018-Jul-02 01:28N 47°39' W 122°20'0 0.0
2018-Jul-02 00:55N 47°39' W 122°20'0 0.0
2018-Jul-02 00:31N 47°39' W 122°20'0 0.0
2018-Jul-01 23:58N 47°39' W 122°20'0 0.0
2018-Jul-01 23:28N 47°39' W 122°20'0 0.0
2018-Jul-01 22:58N 47°39' W 122°20'0 0.0
2018-Jul-01 22:25N 47°39' W 122°20'0 0.0
2018-Jul-01 21:55N 47°39' W 122°20'0 0.0
2018-Jul-01 21:30N 47°39' W 122°20'0 0.0
2018-Jul-01 20:58N 47°39' W 122°20'0 0.0
2018-Jul-01 20:31N 47°39' W 122°20'0 0.0
2018-Jul-01 20:01N 47°39' W 122°20'0 0.0
2018-Jul-01 19:22N 47°39' W 122°20'0 0.0
2018-Jul-01 18:58N 47°39' W 122°20'0 0.0
2018-Jul-01 18:19N 47°39' W 122°20'0 0.0
2018-Jul-01 17:58N 47°39' W 122°20'0 0.0
2018-Jul-01 17:30N 47°39' W 122°20'0 0.0
2018-Jul-01 17:00N 47°39' W 122°20'0 0.0
2018-Jul-01 16:30N 47°39' W 122°20'0 0.0
2018-Jul-01 16:01N 47°39' W 122°20'0 0.0
2018-Jul-01 15:28N 47°39' W 122°20'0 0.0
2018-Jul-01 15:00N 47°39' W 122°20'0 0.0
2018-Jul-01 14:30N 47°39' W 122°20'0 0.0
2018-Jul-01 14:01N 47°39' W 122°20'0 0.0
2018-Jul-01 13:31N 47°39' W 122°20'0 0.0
2018-Jul-01 12:57N 47°39' W 122°20'0 0.0
2018-Jul-01 12:31N 47°39' W 122°20'0 0.0
2018-Jul-01 12:00N 47°39' W 122°20'0 0.0
2018-Jul-01 11:24N 47°39' W 122°20'0 0.0
2018-Jul-01 11:00N 47°39' W 122°20'0 0.0
2018-Jul-01 10:30N 47°39' W 122°20'0 0.0
2018-Jul-01 09:57N 47°39' W 122°20'0 0.0
2018-Jul-01 09:31N 47°39' W 122°20'0 0.0
2018-Jul-01 09:00N 47°39' W 122°20'0 0.0
2018-Jul-01 08:30N 47°39' W 122°20'0 0.0
2018-Jul-01 08:00N 47°39' W 122°20'0 0.0
2018-Jul-01 07:30N 47°39' W 122°20'0 0.0
2018-Jul-01 07:00N 47°39' W 122°20'0 0.0
2018-Jul-01 06:30N 47°39' W 122°20'0 0.0
2018-Jul-01 06:00N 47°39' W 122°20'0 0.0
2018-Jul-01 05:30N 47°39' W 122°20'0 0.0
2018-Jul-01 04:58N 47°39' W 122°20'0 0.0
2018-Jul-01 04:31N 47°39' W 122°20'0 0.0
2018-Jul-01 04:00N 47°39' W 122°20'0 0.0
2018-Jul-01 03:30N 47°39' W 122°20'0 0.0
2018-Jul-01 02:57N 47°39' W 122°20'0 0.0
2018-Jul-01 02:30N 47°39' W 122°20'0 0.0
2018-Jul-01 02:00N 47°39' W 122°20'0 0.0
2018-Jul-01 01:30N 47°39' W 122°20'0 0.0
2018-Jul-01 01:00N 47°39' W 122°20'0 0.0
2018-Jul-01 00:30N 47°39' W 122°20'0 0.0
2018-Jul-01 00:00N 47°39' W 122°20'0 0.0
2018-Jun-30 23:30N 47°39' W 122°20'0 0.0
2018-Jun-30 23:00N 47°39' W 122°20'0 0.0
2018-Jun-30 22:30N 47°39' W 122°20'0 0.0
2018-Jun-30 21:57N 47°39' W 122°20'0 0.0
2018-Jun-30 21:27N 47°39' W 122°20'0 0.0
2018-Jun-30 20:54N 47°39' W 122°20'0 0.0
2018-Jun-30 20:30N 47°39' W 122°20'0 0.0
2018-Jun-30 19:54N 47°39' W 122°20'0 0.0
2018-Jun-30 19:30N 47°39' W 122°20'0 0.0
2018-Jun-30 19:00N 47°39' W 122°20'0 0.0
2018-Jun-30 18:30N 47°39' W 122°20'0 0.0
2018-Jun-30 18:00N 47°39' W 122°20'0 0.0
2018-Jun-30 17:30N 47°39' W 122°20'0 0.0
2018-Jun-30 17:00N 47°39' W 122°20'0 0.0
2018-Jun-30 16:30N 47°39' W 122°20'0 0.0
2018-Jun-30 16:00N 47°39' W 122°20'0 0.0
2018-Jun-30 15:30N 47°39' W 122°20'0 0.0
2018-Jun-30 15:00N 47°39' W 122°20'0 0.0
2018-Jun-30 14:30N 47°39' W 122°20'0 0.0
2018-Jun-30 13:57N 47°39' W 122°20'0 0.0
2018-Jun-30 13:30N 47°39' W 122°20'0 0.0
2018-Jun-30 13:00N 47°39' W 122°20'0 0.0
2018-Jun-30 12:30N 47°39' W 122°20'0 0.0
2018-Jun-30 12:00N 47°39' W 122°20'0 0.0
2018-Jun-30 11:30N 47°39' W 122°20'0 0.0
2018-Jun-30 11:00N 47°39' W 122°20'0 0.0
2018-Jun-30 10:30N 47°39' W 122°20'0 0.0
2018-Jun-30 10:00N 47°39' W 122°20'0 0.0
2018-Jun-30 09:27N 47°39' W 122°20'0 0.0
2018-Jun-30 09:00N 47°39' W 122°20'0 0.0
2018-Jun-30 08:21N 47°39' W 122°20'0 0.0
2018-Jun-30 07:57N 47°39' W 122°20'0 0.0
2018-Jun-30 07:30N 47°39' W 122°20'0 0.0
2018-Jun-30 07:00N 47°39' W 122°20'0 0.0
2018-Jun-30 06:30N 47°39' W 122°20'0 0.0
2018-Jun-30 06:00N 47°39' W 122°20'0 0.0
2018-Jun-30 05:30N 47°39' W 122°20'0 0.0
2018-Jun-30 05:00N 47°39' W 122°20'0 0.0
2018-Jun-30 04:30N 47°39' W 122°20'0 0.0
2018-Jun-30 04:00N 47°39' W 122°20'0 0.0
2018-Jun-30 03:30N 47°39' W 122°20'0 0.0
2018-Jun-30 03:00N 47°39' W 122°20'0 0.0
2018-Jun-30 02:30N 47°39' W 122°20'0 0.0
2018-Jun-30 02:00N 47°39' W 122°20'0 0.0
2018-Jun-30 01:21N 47°39' W 122°20'0 0.0
2018-Jun-30 01:00N 47°39' W 122°20'0 0.0
2018-Jun-30 00:27N 47°39' W 122°20'0 0.0
2018-Jun-30 00:00N 47°39' W 122°20'0 0.0
2018-Jun-29 23:30N 47°39' W 122°20'0 0.0
2018-Jun-29 22:48N 47°39' W 122°20'0 0.0
2018-Jun-29 22:27N 47°39' W 122°20'0 0.0
2018-Jun-29 22:00N 47°39' W 122°20'0 0.0
2018-Jun-29 21:30N 47°39' W 122°20'0 0.0
2018-Jun-29 21:00N 47°39' W 122°20'0 0.0
2018-Jun-29 20:24N 47°39' W 122°20'0 0.0
2018-Jun-29 20:00N 47°39' W 122°20'0 0.0
2018-Jun-29 19:30N 47°39' W 122°20'0 0.0
2018-Jun-29 18:54N 47°39' W 122°20'0 0.0
2018-Jun-29 18:30N 47°39' W 122°20'0 0.0
2018-Jun-29 18:00N 47°39' W 122°20'0 0.0
2018-Jun-29 17:30N 47°39' W 122°20'0 0.0
2018-Jun-29 17:00N 47°39' W 122°20'0 0.0
2018-Jun-29 16:30N 47°39' W 122°20'0 0.0
2018-Jun-29 16:00N 47°39' W 122°20'0 0.0
2018-Jun-29 15:30N 47°39' W 122°20'0 0.0
2018-Jun-29 15:00N 47°39' W 122°20'0 0.0
2018-Jun-29 14:30N 47°39' W 122°20'0 0.0
2018-Jun-29 14:00N 47°39' W 122°20'0 0.0
2018-Jun-29 13:30N 47°39' W 122°20'0 0.0
2018-Jun-29 13:00N 47°39' W 122°20'0 0.0
2018-Jun-29 12:30N 47°39' W 122°20'0 0.0
2018-Jun-29 12:00N 47°39' W 122°20'0 0.0
2018-Jun-29 11:24N 47°39' W 122°20'0 0.0
2018-Jun-29 11:00N 47°39' W 122°20'0 0.0
2018-Jun-29 10:27N 47°39' W 122°20'0 0.0
2018-Jun-29 10:00N 47°39' W 122°20'0 0.0
2018-Jun-29 09:30N 47°39' W 122°20'0 0.0
2018-Jun-29 08:57N 47°39' W 122°20'0 0.0
2018-Jun-29 08:30N 47°39' W 122°20'0 0.0
2018-Jun-29 08:00N 47°39' W 122°20'0 0.0
2018-Jun-29 07:30N 47°39' W 122°20'0 0.0
2018-Jun-29 07:00N 47°39' W 122°20'0 0.0
2018-Jun-29 06:30N 47°39' W 122°20'0 0.0
2018-Jun-29 05:57N 47°39' W 122°20'0 0.0
2018-Jun-29 05:30N 47°39' W 122°20'0 0.0
2018-Jun-29 05:00N 47°39' W 122°20'0 0.0
2018-Jun-29 04:30N 47°39' W 122°20'0 0.0
2018-Jun-29 04:00N 47°39' W 122°20'0 0.0
2018-Jun-29 03:30N 47°39' W 122°20'0 0.0
2018-Jun-29 03:00N 47°39' W 122°20'0 0.0
2018-Jun-29 02:27N 47°39' W 122°20'0 0.0
2018-Jun-29 02:00N 47°39' W 122°20'0 0.0
2018-Jun-29 00:44N 47°39' W 122°20'0 0.0
2018-Jun-29 00:17N 47°39' W 122°20'0 0.0
2018-Jun-28 23:59N 47°39' W 122°20'0 0.0
2018-Jun-28 23:29N 47°39' W 122°20'0 0.0
2018-Jun-28 22:53N 47°39' W 122°20'0 0.0
2018-Jun-28 22:29N 47°39' W 122°20'0 0.0
2018-Jun-28 21:59N 47°39' W 122°20'0 0.0
2018-Jun-28 21:29N 47°39' W 122°20'0 0.0
2018-Jun-28 20:59N 47°39' W 122°20'0 0.0
2018-Jun-28 20:29N 47°39' W 122°20'0 0.0
2018-Jun-28 19:56N 47°39' W 122°20'0 0.0
2018-Jun-28 19:20N 47°39' W 122°20'0 0.0
2018-Jun-28 18:56N 47°39' W 122°20'0 0.0
2018-Jun-28 18:29N 47°39' W 122°20'0 0.0
2018-Jun-28 17:56N 47°39' W 122°20'0 0.0
2018-Jun-28 17:26N 47°39' W 122°20'0 0.0
2018-Jun-28 16:59N 47°39' W 122°20'0 0.0
2018-Jun-28 16:29N 47°39' W 122°20'0 0.0
2018-Jun-28 15:56N 47°39' W 122°20'0 0.0
2018-Jun-28 15:29N 47°39' W 122°20'  

Dump ship's entire track history